createdAt,value
2022-11-23T00:04:22.652Z,65.85
2022-11-23T00:09:24.105Z,65.52
2022-11-23T00:14:25.626Z,65.04
2022-11-23T00:19:27.071Z,65.64
2022-11-23T00:24:28.591Z,65.79
2022-11-23T00:29:30.254Z,65.31
2022-11-23T00:34:32.262Z,65.37
2022-11-23T00:39:33.782Z,65.41
2022-11-23T00:44:35.311Z,65.86
2022-11-23T00:49:36.754Z,67.19
2022-11-23T00:54:38.247Z,67.01
2022-11-23T00:59:39.811Z,66.68
2022-11-23T01:04:41.472Z,67.17
2022-11-23T01:09:43.040Z,66.86
2022-11-23T01:14:44.471Z,65.93
2022-11-23T01:19:45.884Z,66.41
2022-11-23T01:24:49.602Z,66.67
2022-11-23T01:29:51.068Z,65.93
2022-11-23T01:34:54.615Z,65.96
2022-11-23T01:39:56.084Z,67.06
2022-11-23T01:45:32.351Z,65.95
2022-11-23T01:50:33.834Z,66.61
2022-11-23T01:55:36.453Z,66.40
2022-11-23T02:00:39.096Z,65.64
2022-11-23T02:05:47.389Z,65.78
2022-11-23T02:10:49.880Z,66.90
2022-11-23T02:15:53.087Z,66.78
2022-11-23T02:20:56.584Z,66.92
2022-11-23T02:26:09.643Z,66.76
2022-11-23T02:31:11.196Z,67.07
2022-11-23T02:36:37.299Z,66.51
2022-11-23T02:41:48.398Z,66.88
2022-11-23T02:46:50.990Z,67.20
2022-11-23T02:51:52.847Z,67.10
2022-11-23T02:56:54.358Z,67.02
2022-11-23T03:01:55.809Z,66.39
2022-11-23T03:06:57.827Z,67.31
2022-11-23T03:11:59.321Z,67.43
2022-11-23T03:17:02.857Z,67.29
2022-11-23T03:22:09.715Z,66.58
2022-11-23T03:27:11.628Z,66.09
2022-11-23T03:32:14.727Z,67.33
2022-11-23T03:37:19.913Z,67.51
2022-11-23T03:42:22.167Z,67.91
2022-11-23T03:47:23.834Z,67.85
2022-11-23T03:52:25.285Z,67.92
2022-11-23T03:57:26.704Z,66.32
2022-11-23T04:02:28.898Z,68.61
2022-11-23T04:07:40.720Z,67.22
2022-11-23T04:12:42.415Z,67.74
2022-11-23T04:17:43.858Z,68.60
2022-11-23T04:22:45.470Z,68.76
2022-11-23T04:27:47.008Z,68.91
2022-11-23T04:32:48.764Z,69.05
2022-11-23T04:37:50.384Z,69.22
2022-11-23T04:42:53.823Z,69.11
2022-11-23T04:47:58.186Z,68.45
2022-11-23T04:53:00.961Z,67.95
2022-11-23T04:58:10.965Z,67.75
2022-11-23T05:03:13.741Z,67.80
2022-11-23T05:08:16.780Z,68.06
2022-11-23T05:13:27.327Z,67.91
2022-11-23T05:18:28.927Z,68.53
2022-11-23T05:23:30.527Z,68.11
2022-11-23T05:28:41.622Z,67.32
2022-11-23T05:33:47.202Z,67.79
2022-11-23T05:38:50.992Z,68.20
2022-11-23T05:43:59.949Z,68.30
2022-11-23T05:49:03.874Z,67.83
2022-11-23T05:54:10.243Z,67.66
2022-11-23T05:59:24.520Z,67.35
2022-11-23T06:04:32.302Z,67.16
2022-11-23T06:09:34.830Z,68.68
2022-11-23T06:14:41.286Z,67.53
2022-11-23T06:19:43.343Z,69.28
2022-11-23T06:24:46.232Z,69.53
2022-11-23T06:30:10.380Z,69.22
2022-11-23T06:35:12.532Z,68.78
2022-11-23T06:40:16.255Z,68.56
2022-11-23T06:45:17.827Z,68.19
2022-11-23T06:50:20.472Z,68.09
2022-11-23T06:55:26.268Z,67.90
2022-11-23T07:00:27.833Z,67.48
2022-11-23T07:05:30.608Z,67.22
2022-11-23T07:10:32.795Z,66.79
2022-11-23T07:15:36.874Z,66.80
2022-11-23T07:20:38.540Z,66.82
2022-11-23T07:25:40.765Z,67.11
2022-11-23T07:30:42.358Z,66.88
2022-11-23T07:35:44.340Z,66.96
2022-11-23T07:40:49.171Z,67.28
2022-11-23T07:46:03.816Z,66.47
2022-11-23T07:51:05.259Z,66.38
2022-11-23T07:56:07.063Z,65.81
2022-11-23T08:01:08.483Z,64.95
2022-11-23T08:06:10.317Z,64.10
2022-11-23T08:11:12.076Z,63.96
2022-11-23T08:16:13.491Z,63.96
2022-11-23T08:21:14.862Z,62.37
2022-11-23T08:26:16.278Z,62.75
2022-11-23T08:31:17.742Z,62.88
2022-11-23T08:36:19.140Z,62.97
2022-11-23T08:41:20.734Z,62.59
2022-11-23T08:46:22.207Z,63.57
2022-11-23T08:51:23.627Z,62.05
2022-11-23T08:56:25.081Z,61.41
2022-11-23T09:01:26.546Z,61.16
2022-11-23T09:06:28.105Z,59.91
2022-11-23T09:11:29.496Z,60.22
2022-11-23T09:16:33.919Z,59.24
2022-11-23T09:21:35.656Z,60.02
2022-11-23T09:26:37.151Z,58.28
2022-11-23T09:31:38.751Z,59.71
2022-11-23T09:36:40.256Z,57.61
2022-11-23T09:42:00.284Z,56.70
2022-11-23T09:47:23.115Z,56.91
2022-11-23T09:52:25.596Z,55.45
2022-11-23T09:57:31.383Z,54.50
2022-11-23T10:02:39.726Z,53.32
2022-11-23T10:07:48.585Z,52.22
2022-11-23T10:13:10.039Z,50.77
2022-11-23T10:18:43.646Z,48.72
2022-11-23T10:24:05.130Z,43.32
2022-11-23T10:29:14.435Z,38.82
2022-11-23T10:34:31.158Z,34.56
2022-11-23T10:39:32.762Z,35.55
2022-11-23T10:44:37.754Z,38.15
2022-11-23T10:49:39.243Z,39.79
2022-11-23T10:54:52.666Z,39.43
2022-11-23T11:00:23.674Z,38.35
2022-11-23T11:11:22.756Z,30.42
2022-11-23T11:16:29.715Z,27.91
2022-11-23T11:21:35.549Z,25.40
2022-11-23T11:26:51.425Z,24.69
2022-11-23T11:32:06.128Z,22.95
2022-11-23T11:37:14.954Z,22.43
2022-11-23T11:42:36.491Z,22.23
2022-11-23T11:47:45.891Z,21.36
2022-11-23T11:52:50.945Z,24.01
2022-11-23T11:57:59.677Z,24.18
2022-11-23T12:03:06.835Z,22.10
2022-11-23T12:08:18.044Z,22.02
2022-11-23T12:13:22.862Z,22.43
2022-11-23T12:19:01.180Z,21.40
2022-11-23T12:24:05.515Z,20.72
2022-11-23T12:29:16.011Z,20.85
2022-11-23T12:34:23.269Z,21.43
2022-11-23T12:39:43.420Z,21.59
2022-11-23T12:44:53.989Z,23.08
2022-11-23T12:50:00.489Z,23.47
2022-11-23T12:55:20.419Z,23.97
2022-11-23T13:00:23.425Z,25.09
2022-11-23T13:06:00.251Z,24.50
2022-11-23T13:11:39.017Z,25.17
2022-11-23T13:17:05.800Z,27.11
2022-11-23T13:22:14.488Z,27.64
2022-11-23T13:27:15.921Z,28.82
2022-11-23T13:33:00.510Z,28.15
2022-11-23T13:38:13.855Z,28.56
2022-11-23T13:43:20.769Z,30.28
2022-11-23T13:53:52.539Z,31.71
2022-11-23T13:59:25.346Z,33.70
2022-11-23T14:04:29.660Z,35.81
2022-11-23T14:09:36.349Z,37.32
2022-11-23T14:14:43.684Z,38.13
2022-11-23T14:19:57.343Z,39.77
2022-11-23T14:25:17.420Z,41.14
2022-11-23T14:30:41.035Z,42.49
2022-11-23T14:35:54.030Z,42.75
2022-11-23T14:41:07.979Z,43.48
2022-11-23T14:46:16.431Z,42.23
2022-11-23T14:51:20.687Z,42.79
2022-11-23T14:56:22.067Z,42.37
2022-11-23T15:01:25.649Z,43.96
2022-11-23T15:06:32.914Z,44.11
2022-11-23T15:11:37.055Z,46.15
2022-11-23T15:16:40.159Z,46.38
2022-11-23T15:21:44.680Z,45.59
2022-11-23T15:26:49.393Z,48.49
2022-11-23T15:32:14.113Z,49.56
2022-11-23T15:37:12.970Z,51.27
2022-11-23T15:42:19.386Z,53.01
2022-11-23T15:47:26.777Z,53.82
2022-11-23T15:52:33.992Z,54.59
2022-11-23T15:57:35.440Z,55.44
2022-11-23T16:02:37.165Z,56.93
2022-11-23T16:08:00.009Z,56.97
2022-11-23T16:13:03.906Z,56.99
2022-11-23T16:18:26.911Z,56.90
2022-11-23T16:23:55.497Z,57.23
2022-11-23T16:28:59.275Z,56.80
2022-11-23T16:34:00.694Z,55.65
2022-11-23T16:39:05.632Z,55.04
2022-11-23T16:44:07.420Z,54.57
2022-11-23T16:49:15.890Z,55.39
2022-11-23T16:54:21.877Z,51.70
2022-11-23T16:59:26.228Z,54.88
2022-11-23T17:04:27.790Z,57.39
2022-11-23T17:09:29.427Z,55.99
2022-11-23T17:14:37.791Z,57.72
2022-11-23T17:19:39.203Z,56.64
2022-11-23T17:24:40.707Z,59.15
2022-11-23T17:29:43.828Z,58.42
2022-11-23T17:34:45.495Z,58.98
2022-11-23T17:39:48.039Z,60.13
2022-11-23T17:44:49.740Z,59.42
2022-11-23T17:49:51.218Z,60.86
2022-11-23T17:54:52.743Z,61.08
2022-11-23T17:59:54.533Z,61.58
2022-11-23T18:04:56.011Z,62.58
2022-11-23T18:09:57.516Z,61.98
2022-11-23T18:14:58.988Z,61.68
2022-11-23T18:20:00.384Z,63.13
2022-11-23T18:25:01.942Z,63.69
2022-11-23T18:30:04.003Z,63.61
2022-11-23T18:35:06.070Z,65.24
2022-11-23T18:40:07.947Z,65.05
2022-11-23T18:45:09.614Z,64.70
2022-11-23T18:50:11.108Z,66.15
2022-11-23T18:55:12.577Z,65.56
2022-11-23T19:00:14.306Z,65.22
2022-11-23T19:05:15.696Z,66.17
2022-11-23T19:10:18.059Z,68.01
2022-11-23T19:15:19.526Z,69.64
2022-11-23T19:20:21.882Z,70.29
2022-11-23T19:25:23.328Z,70.68
2022-11-23T19:30:24.882Z,71.53
2022-11-23T19:35:26.341Z,71.80
2022-11-23T19:40:27.790Z,71.20
2022-11-23T19:45:29.262Z,70.58
2022-11-23T19:50:30.724Z,70.51
2022-11-23T19:55:32.173Z,69.73
2022-11-23T20:00:33.618Z,70.70
2022-11-23T20:05:35.233Z,70.95
2022-11-23T20:10:36.705Z,69.60
2022-11-23T20:15:38.219Z,69.72
2022-11-23T20:20:44.039Z,69.62
2022-11-23T20:25:45.537Z,68.65
2022-11-23T20:30:50.226Z,69.56
2022-11-23T20:35:52.144Z,69.04
2022-11-23T20:40:53.517Z,68.37
2022-11-23T20:45:58.335Z,67.89
2022-11-23T20:50:59.772Z,67.56
2022-11-23T20:56:05.971Z,67.72
2022-11-23T21:01:09.838Z,67.13
2022-11-23T21:06:13.326Z,67.13
2022-11-23T21:11:20.557Z,66.76
2022-11-23T21:16:22.059Z,66.13
2022-11-23T21:21:23.596Z,66.90
2022-11-23T21:26:25.091Z,66.99
2022-11-23T21:31:27.067Z,67.02
2022-11-23T21:36:28.593Z,67.39
2022-11-23T21:41:30.062Z,68.25
2022-11-23T21:46:32.086Z,68.66
2022-11-23T21:51:34.777Z,68.99
2022-11-23T21:56:36.177Z,70.10
2022-11-23T22:01:37.993Z,71.24
2022-11-23T22:06:40.435Z,69.90
2022-11-23T22:11:43.417Z,69.50
2022-11-23T22:16:47.360Z,70.01
2022-11-23T22:21:49.038Z,69.89
2022-11-23T22:26:50.516Z,69.57
2022-11-23T22:31:51.997Z,69.82
2022-11-23T22:36:53.443Z,68.80
2022-11-23T22:41:54.872Z,69.41
2022-11-23T22:46:56.308Z,69.09
2022-11-23T22:51:57.758Z,69.36
2022-11-23T22:56:59.203Z,68.46
2022-11-23T23:02:00.741Z,69.00
2022-11-23T23:07:02.224Z,69.03
2022-11-23T23:12:03.859Z,69.28
2022-11-23T23:17:05.316Z,69.62
2022-11-23T23:22:06.850Z,69.23
2022-11-23T23:27:08.280Z,69.77
2022-11-23T23:32:09.787Z,69.25
2022-11-23T23:37:12.329Z,70.52
2022-11-23T23:42:13.802Z,71.28
2022-11-23T23:47:15.286Z,71.10
2022-11-23T23:52:16.767Z,71.34
2022-11-23T23:57:18.246Z,71.15
